Terminal Aerodrome Forecast
Issued by NWS

Home | Current Version | Previous Version | Text Only | Print | Product List | Glossary On
Versions: 1 2 3 4 5 6 7 8 9 10 11 12 13 14 15 16 17 18 19 20 21 22 23 24 25 26 27 28 29 30
000
FTUS45 KBOI 211148
TAFJER
TAF
KJER 211148Z 2112/2212 22007KT P6SM BKN035 BKN070
     FM212300 24011KT P6SM VCSH BKN050 OVC100
     FM220200 20008KT P6SM -RA BKN025 OVC035
     FM220800 VRB05KT P6SM OVC040=

USA.gov is the U.S. government's official web portal to all federal, state and local government web resources and services.